createdAt,value
2019-06-26T00:00:12.929Z,55.94
2019-06-26T00:02:45.139Z,55.94
2019-06-26T00:05:16.842Z,55.65
2019-06-26T00:07:48.532Z,56.02
2019-06-26T00:10:20.485Z,56.02
2019-06-26T00:12:53.900Z,56.31
2019-06-26T00:15:25.635Z,56.83
2019-06-26T00:17:57.657Z,56.38
2019-06-26T00:20:29.525Z,56.38
2019-06-26T00:23:01.059Z,56.71
2019-06-26T00:25:32.625Z,55.99
2019-06-26T00:28:04.272Z,56.13
2019-06-26T00:30:36.105Z,56.13
2019-06-26T00:33:07.931Z,56.64
2019-06-26T00:35:39.519Z,55.89
2019-06-26T00:38:11.165Z,55.74
2019-06-26T00:40:42.795Z,56.17
2019-06-26T00:43:14.623Z,56.17
2019-06-26T00:45:46.468Z,56.91
2019-06-26T00:48:18.232Z,56.49
2019-06-26T00:50:51.123Z,56.01
2019-06-26T00:53:22.779Z,57.52
2019-06-26T00:55:55.288Z,57.52
2019-06-26T00:58:27.212Z,56.24
2019-06-26T01:00:59.221Z,56.25
2019-06-26T01:03:30.821Z,56.59
2019-06-26T01:06:02.145Z,57.07
2019-06-26T01:08:33.561Z,56.18
2019-06-26T01:11:05.396Z,56.76
2019-06-26T01:13:36.874Z,56.88
2019-06-26T01:16:08.789Z,56.92
2019-06-26T01:18:40.490Z,56.92
2019-06-26T01:21:12.096Z,57.07
2019-06-26T01:23:43.872Z,56.61
2019-06-26T01:26:15.616Z,56.74
2019-06-26T01:28:47.479Z,56.92
2019-06-26T01:31:19.495Z,56.92
2019-06-26T01:33:51.214Z,56.41
2019-06-26T01:36:24.183Z,57.04
2019-06-26T01:38:58.066Z,56.17
2019-06-26T01:41:29.423Z,56.17
2019-06-26T01:44:13.718Z,56.06
2019-06-26T01:46:34.479Z,56.06
2019-06-26T01:49:06.290Z,55.28
2019-06-26T01:51:37.557Z,55.38
2019-06-26T01:54:09.450Z,55.06
2019-06-26T01:56:41.040Z,55.06
2019-06-26T01:59:12.863Z,55.06
2019-06-26T02:01:44.941Z,54.66
2019-06-26T02:04:16.189Z,55.25
2019-06-26T02:06:47.702Z,54.82
2019-06-26T02:09:19.107Z,54.90
2019-06-26T02:11:50.774Z,54.90
2019-06-26T02:14:31.181Z,54.48
2019-06-26T02:16:55.716Z,54.87
2019-06-26T02:19:27.363Z,54.30
2019-06-26T02:21:59.108Z,53.75
2019-06-26T02:24:30.786Z,53.85
2019-06-26T02:27:02.166Z,53.85
2019-06-26T02:29:34.060Z,53.56
2019-06-26T02:32:05.601Z,53.66
2019-06-26T02:34:37.226Z,53.09
2019-06-26T02:37:08.731Z,53.53
2019-06-26T02:39:40.270Z,53.53
2019-06-26T02:42:11.872Z,53.94
2019-06-26T02:44:53.043Z,53.29
2019-06-26T02:47:20.101Z,52.50
2019-06-26T02:49:50.010Z,52.50
2019-06-26T02:52:21.473Z,52.29
2019-06-26T02:54:52.778Z,52.46
2019-06-26T02:57:24.547Z,53.00
2019-06-26T02:59:56.330Z,52.79
2019-06-26T03:02:27.777Z,52.84
2019-06-26T03:04:59.747Z,52.84
2019-06-26T03:07:32.078Z,52.68
2019-06-26T03:10:03.449Z,52.87
2019-06-26T03:12:34.901Z,52.94
2019-06-26T03:15:09.404Z,52.94
2019-06-26T03:17:54.045Z,52.77
2019-06-26T03:20:14.882Z,52.82
2019-06-26T03:22:46.215Z,52.82
2019-06-26T03:25:17.715Z,52.22
2019-06-26T03:27:49.554Z,52.08
2019-06-26T03:30:21.712Z,51.88
2019-06-26T03:32:53.557Z,51.88
2019-06-26T03:35:25.251Z,52.12
2019-06-26T03:37:57.255Z,52.12
2019-06-26T03:40:28.775Z,53.02
2019-06-26T03:43:00.406Z,53.01
2019-06-26T03:45:31.917Z,53.01
2019-06-26T03:48:03.203Z,52.42
2019-06-26T03:50:34.976Z,52.42
2019-06-26T03:53:06.274Z,53.75
2019-06-26T03:55:37.990Z,53.90
2019-06-26T03:58:09.865Z,53.49
2019-06-26T04:00:42.985Z,53.49
2019-06-26T04:03:14.405Z,53.23
2019-06-26T04:05:45.694Z,54.28
2019-06-26T04:08:17.078Z,54.28
2019-06-26T04:10:48.920Z,53.87
2019-06-26T04:13:20.458Z,53.87
2019-06-26T04:15:52.213Z,53.84
2019-06-26T04:18:23.551Z,53.84
2019-06-26T04:20:55.435Z,53.95
2019-06-26T04:23:27.170Z,54.63
2019-06-26T04:25:58.575Z,54.46
2019-06-26T04:28:30.005Z,53.97
2019-06-26T04:31:02.165Z,53.97
2019-06-26T04:33:33.993Z,54.17
2019-06-26T04:36:05.558Z,54.03
2019-06-26T04:38:36.822Z,54.66
2019-06-26T04:41:08.522Z,55.06
2019-06-26T04:43:40.598Z,55.06
2019-06-26T04:46:12.207Z,54.39
2019-06-26T04:48:43.638Z,53.67
2019-06-26T04:51:15.222Z,54.95
2019-06-26T04:53:46.676Z,54.75
2019-06-26T04:56:17.999Z,55.24
2019-06-26T04:58:49.353Z,55.24
2019-06-26T05:01:21.273Z,54.66
2019-06-26T05:03:52.645Z,54.67
2019-06-26T05:06:23.966Z,54.67
2019-06-26T05:08:55.524Z,53.95
2019-06-26T05:11:26.972Z,53.44
2019-06-26T05:13:58.284Z,53.44
2019-06-26T05:16:29.808Z,52.45
2019-06-26T05:19:01.339Z,53.04
2019-06-26T05:21:32.894Z,52.67
2019-06-26T05:24:04.453Z,52.00
2019-06-26T05:26:35.989Z,52.00
2019-06-26T05:29:08.725Z,51.06
2019-06-26T05:31:40.969Z,50.68
2019-06-26T05:34:12.348Z,50.78
2019-06-26T05:36:43.911Z,50.78
2019-06-26T05:39:15.414Z,51.20
2019-06-26T05:41:47.026Z,51.60
2019-06-26T05:44:18.765Z,51.21
2019-06-26T05:46:50.382Z,51.29
2019-06-26T05:49:21.996Z,51.26
2019-06-26T05:51:53.464Z,51.18
2019-06-26T05:54:25.149Z,50.96
2019-06-26T05:56:56.551Z,51.10
2019-06-26T05:59:27.840Z,51.11
2019-06-26T06:02:00.559Z,50.60
2019-06-26T06:04:32.271Z,50.29
2019-06-26T06:07:04.231Z,50.29
2019-06-26T06:09:35.446Z,50.10
2019-06-26T06:12:07.095Z,49.14
2019-06-26T06:14:38.587Z,49.37
2019-06-26T06:17:10.030Z,49.37
2019-06-26T06:19:41.442Z,48.37
2019-06-26T06:22:12.850Z,47.14
2019-06-26T06:24:44.398Z,47.14
2019-06-26T06:27:16.083Z,46.17
2019-06-26T06:29:48.362Z,46.10
2019-06-26T06:32:20.476Z,46.58
2019-06-26T06:34:51.829Z,45.66
2019-06-26T06:37:23.201Z,45.14
2019-06-26T06:42:43.304Z,44.56
2019-06-26T06:45:15.069Z,44.70
2019-06-26T06:47:47.548Z,43.93
2019-06-26T06:50:19.330Z,44.71
2019-06-26T06:52:51.148Z,44.71
2019-06-26T06:55:23.204Z,44.70
2019-06-26T06:57:55.742Z,44.71
2019-06-26T07:00:30.923Z,44.71
2019-06-26T07:03:05.183Z,44.08
2019-06-26T07:05:37.971Z,44.53
2019-06-26T07:08:10.418Z,44.83
2019-06-26T07:10:44.476Z,44.74
2019-06-26T07:13:18.719Z,44.74
2019-06-26T07:15:52.925Z,44.28
2019-06-26T07:18:26.610Z,43.80
2019-06-26T07:21:00.340Z,43.80
2019-06-26T07:23:34.242Z,43.17
2019-06-26T07:26:09.200Z,43.54
2019-06-26T07:28:42.982Z,44.04
2019-06-26T07:31:15.607Z,44.12
2019-06-26T07:33:47.031Z,44.39
2019-06-26T07:36:18.404Z,43.86
2019-06-26T07:38:50.011Z,43.89
2019-06-26T07:41:21.607Z,43.15
2019-06-26T07:43:54.857Z,43.25
2019-06-26T07:46:26.227Z,43.60
2019-06-26T07:48:57.786Z,43.04
2019-06-26T07:51:29.428Z,43.29
2019-06-26T07:54:00.892Z,43.00
2019-06-26T07:56:32.796Z,42.87
2019-06-26T07:59:04.216Z,42.78
2019-06-26T08:01:35.886Z,42.80
2019-06-26T08:04:08.019Z,41.87
2019-06-26T08:06:39.505Z,41.72
2019-06-26T08:09:11.057Z,41.72
2019-06-26T08:11:42.533Z,41.00
2019-06-26T08:14:14.569Z,40.64
2019-06-26T08:16:45.984Z,40.64
2019-06-26T08:19:17.547Z,41.28
2019-06-26T08:21:50.016Z,41.76
2019-06-26T08:24:21.641Z,41.76
2019-06-26T08:26:53.153Z,41.90
2019-06-26T08:29:26.687Z,41.92
2019-06-26T08:31:57.955Z,41.63
2019-06-26T08:34:30.000Z,42.02
2019-06-26T08:37:01.711Z,42.66
2019-06-26T08:39:33.356Z,42.77
2019-06-26T08:42:05.274Z,44.99
2019-06-26T08:44:36.683Z,54.38
2019-06-26T08:47:08.335Z,63.62
2019-06-26T08:49:39.999Z,63.62
2019-06-26T08:52:11.608Z,66.40
2019-06-26T08:54:44.515Z,67.60
2019-06-26T08:57:16.026Z,68.87
2019-06-26T08:59:47.667Z,74.90
2019-06-26T09:02:19.368Z,75.85
2019-06-26T09:04:52.339Z,75.85
2019-06-26T09:07:25.131Z,74.16
2019-06-26T09:09:57.903Z,74.89
2019-06-26T09:12:29.564Z,72.39
2019-06-26T09:15:02.090Z,64.34
2019-06-26T09:17:33.878Z,66.76
2019-06-26T09:20:05.752Z,66.76
2019-06-26T09:22:37.484Z,64.31
2019-06-26T09:25:21.455Z,63.67
2019-06-26T09:27:45.191Z,63.31
2019-06-26T09:30:17.935Z,62.86
2019-06-26T09:32:51.726Z,64.44
2019-06-26T09:35:26.370Z,63.96
2019-06-26T09:38:00.600Z,64.09
2019-06-26T09:40:34.455Z,65.14
2019-06-26T09:43:07.318Z,65.35
2019-06-26T09:45:41.580Z,65.10
2019-06-26T09:48:16.031Z,65.66
2019-06-26T09:50:50.255Z,65.66
2019-06-26T09:53:24.008Z,67.63
2019-06-26T09:55:55.723Z,67.07
2019-06-26T09:58:27.608Z,67.04
2019-06-26T10:00:59.222Z,65.83
2019-06-26T10:03:30.726Z,65.83
2019-06-26T10:06:02.422Z,65.08
2019-06-26T10:08:33.971Z,61.47
2019-06-26T10:11:05.612Z,61.47
2019-06-26T10:13:37.389Z,57.62
2019-06-26T10:16:08.758Z,57.62
2019-06-26T10:18:40.291Z,59.03
2019-06-26T10:21:11.938Z,59.03
2019-06-26T10:23:43.620Z,56.43
2019-06-26T10:26:16.338Z,56.30
2019-06-26T10:28:47.797Z,55.47
2019-06-26T10:31:19.491Z,55.27
2019-06-26T10:33:50.710Z,55.97
2019-06-26T10:36:24.599Z,54.49
2019-06-26T10:38:55.877Z,53.37
2019-06-26T10:41:27.522Z,53.37
2019-06-26T10:43:58.765Z,53.02
2019-06-26T10:46:30.337Z,53.29
2019-06-26T10:49:01.752Z,53.29
2019-06-26T10:51:33.022Z,53.17
2019-06-26T10:54:04.493Z,52.60
2019-06-26T10:56:36.255Z,52.81
2019-06-26T10:59:07.819Z,54.39
2019-06-26T11:01:39.633Z,54.39
2019-06-26T11:04:11.376Z,54.19
2019-06-26T11:06:43.366Z,53.35
2019-06-26T11:09:14.727Z,52.80
2019-06-26T11:11:46.394Z,52.80
2019-06-26T11:14:17.977Z,54.48
2019-06-26T11:16:51.773Z,53.99
2019-06-26T11:19:23.338Z,53.21
2019-06-26T11:21:54.975Z,55.29
2019-06-26T11:24:26.465Z,55.29
2019-06-26T11:26:57.864Z,53.62
2019-06-26T11:29:29.570Z,54.27
2019-06-26T11:32:00.968Z,54.27
2019-06-26T11:34:33.431Z,53.35
2019-06-26T11:37:05.219Z,53.11
2019-06-26T11:39:37.222Z,53.33
2019-06-26T11:42:08.820Z,53.52
2019-06-26T11:44:40.431Z,54.29
2019-06-26T11:47:11.933Z,53.55
2019-06-26T11:49:55.877Z,53.79
2019-06-26T11:52:18.996Z,54.85
2019-06-26T11:55:01.723Z,53.61
2019-06-26T11:57:23.645Z,53.61
2019-06-26T11:59:55.203Z,54.64
2019-06-26T12:02:26.520Z,54.64
2019-06-26T12:04:58.104Z,53.21
2019-06-26T12:07:29.978Z,53.21
2019-06-26T12:10:01.600Z,51.64
2019-06-26T12:12:33.305Z,51.75
2019-06-26T12:15:05.522Z,51.75
2019-06-26T12:17:37.116Z,51.34
2019-06-26T12:20:18.668Z,51.93
2019-06-26T12:22:42.759Z,51.00
2019-06-26T12:25:15.128Z,51.00
2019-06-26T12:27:46.961Z,51.40
2019-06-26T12:30:18.765Z,52.74
2019-06-26T12:33:02.207Z,52.74
2019-06-26T12:35:23.977Z,54.70
2019-06-26T12:37:56.149Z,54.70
2019-06-26T12:40:30.904Z,54.60
2019-06-26T12:43:01.735Z,55.00
2019-06-26T12:45:33.555Z,55.80
2019-06-26T12:48:05.021Z,55.38
2019-06-26T12:50:36.503Z,55.01
2019-06-26T12:53:08.083Z,54.79
2019-06-26T12:55:39.762Z,54.22
2019-06-26T12:58:14.787Z,55.48
2019-06-26T13:00:45.133Z,55.48
2019-06-26T13:03:16.795Z,55.93
2019-06-26T13:05:48.494Z,55.65
2019-06-26T13:08:20.529Z,55.78
2019-06-26T13:10:52.987Z,55.49
2019-06-26T13:13:24.221Z,55.49
2019-06-26T13:15:55.726Z,54.32
2019-06-26T13:18:28.185Z,54.32
2019-06-26T13:20:59.735Z,54.24
2019-06-26T13:23:32.879Z,54.59
2019-06-26T13:26:04.805Z,55.29
2019-06-26T13:28:36.744Z,55.57
2019-06-26T13:31:08.209Z,57.73
2019-06-26T13:33:40.200Z,57.73
2019-06-26T13:36:11.710Z,56.86
2019-06-26T13:38:43.450Z,57.56
2019-06-26T13:41:14.792Z,58.92
2019-06-26T13:43:46.566Z,59.48
2019-06-26T13:46:18.200Z,60.50
2019-06-26T13:48:49.976Z,62.37
2019-06-26T13:51:21.743Z,62.37
2019-06-26T13:53:53.669Z,62.63
2019-06-26T13:56:25.393Z,62.63
2019-06-26T13:58:57.388Z,63.12
2019-06-26T14:01:28.607Z,63.77
2019-06-26T14:04:00.568Z,63.79
2019-06-26T14:06:32.413Z,63.79
2019-06-26T14:09:06.608Z,64.68
2019-06-26T14:11:38.993Z,64.59
2019-06-26T14:14:10.945Z,64.59
2019-06-26T14:16:42.760Z,63.73
2019-06-26T14:19:16.216Z,63.50
2019-06-26T14:21:47.680Z,63.68
2019-06-26T14:24:19.175Z,63.77
2019-06-26T14:26:50.751Z,63.77
2019-06-26T14:29:22.332Z,63.17
2019-06-26T14:31:53.818Z,62.00
2019-06-26T14:34:27.885Z,63.26
2019-06-26T14:36:59.072Z,63.26
2019-06-26T14:39:31.132Z,62.70
2019-06-26T14:42:02.604Z,62.28
2019-06-26T14:44:34.239Z,62.17
2019-06-26T14:47:06.016Z,62.17
2019-06-26T14:49:37.594Z,61.73
2019-06-26T14:52:09.319Z,61.73
2019-06-26T14:54:40.779Z,61.68
2019-06-26T14:57:12.180Z,62.20
2019-06-26T14:59:44.122Z,61.28
2019-06-26T15:02:16.139Z,60.61
2019-06-26T15:04:47.512Z,60.61
2019-06-26T15:07:18.819Z,60.21
2019-06-26T15:09:50.939Z,61.10
2019-06-26T15:12:22.297Z,62.33
2019-06-26T15:14:53.747Z,61.47
2019-06-26T15:17:25.289Z,61.47
2019-06-26T15:19:57.777Z,61.28
2019-06-26T15:22:29.405Z,61.28
2019-06-26T15:25:02.048Z,61.57
2019-06-26T15:27:33.557Z,60.96
2019-06-26T15:30:05.630Z,60.96
2019-06-26T15:32:36.728Z,61.64
2019-06-26T15:35:09.305Z,62.21
2019-06-26T15:37:40.434Z,60.67
2019-06-26T15:40:13.894Z,60.68
2019-06-26T15:42:44.778Z,61.02
2019-06-26T15:45:16.230Z,61.59
2019-06-26T15:47:47.729Z,62.32
2019-06-26T15:50:19.437Z,61.61
2019-06-26T15:52:50.992Z,58.84
2019-06-26T15:55:22.594Z,58.84
2019-06-26T15:57:54.269Z,58.27
2019-06-26T16:00:26.291Z,58.38
2019-06-26T16:02:58.105Z,57.95
2019-06-26T16:05:29.779Z,57.51
2019-06-26T16:08:01.606Z,57.67
2019-06-26T16:10:34.735Z,57.23
2019-06-26T16:13:06.636Z,56.76
2019-06-26T16:15:38.552Z,57.90
2019-06-26T16:18:36.466Z,60.26
2019-06-26T16:21:08.560Z,58.66
2019-06-26T16:23:40.041Z,58.66
2019-06-26T16:26:11.476Z,58.89
2019-06-26T16:28:43.010Z,58.89
2019-06-26T16:31:15.008Z,59.57
2019-06-26T16:33:46.372Z,59.08
2019-06-26T16:36:18.859Z,58.58
2019-06-26T16:38:50.602Z,58.33
2019-06-26T16:41:22.891Z,58.72
2019-06-26T16:43:54.259Z,58.56
2019-06-26T16:46:25.976Z,58.81
2019-06-26T16:50:14.380Z,58.56
2019-06-26T16:52:49.196Z,58.39
2019-06-26T16:55:17.110Z,58.30
2019-06-26T16:57:48.488Z,58.49
2019-06-26T17:00:20.171Z,58.42
2019-06-26T17:02:51.598Z,57.95
2019-06-26T17:05:23.047Z,58.05
2019-06-26T17:07:54.852Z,57.92
2019-06-26T17:10:26.278Z,58.23
2019-06-26T17:12:57.978Z,58.56
2019-06-26T17:15:29.693Z,58.32
2019-06-26T17:18:01.224Z,58.49
2019-06-26T17:20:33.667Z,58.45
2019-06-26T17:23:06.496Z,57.77
2019-06-26T17:25:38.761Z,57.44
2019-06-26T17:28:10.417Z,58.72
2019-06-26T17:30:41.841Z,59.00
2019-06-26T17:33:13.505Z,58.47
2019-06-26T17:35:45.004Z,58.47
2019-06-26T17:38:16.567Z,57.46
2019-06-26T17:40:47.845Z,57.49
2019-06-26T17:43:19.428Z,57.80
2019-06-26T17:45:50.709Z,58.50
2019-06-26T17:48:22.104Z,58.66
2019-06-26T17:50:53.559Z,58.66
2019-06-26T17:53:24.942Z,60.04
2019-06-26T17:55:56.727Z,59.82
2019-06-26T17:58:31.202Z,59.55
2019-06-26T18:01:02.827Z,58.64
2019-06-26T18:03:34.270Z,58.56
2019-06-26T18:06:05.976Z,58.56
2019-06-26T18:08:37.877Z,58.53
2019-06-26T18:11:09.552Z,58.21
2019-06-26T18:13:41.559Z,58.23
2019-06-26T18:16:13.438Z,57.96
2019-06-26T18:18:45.286Z,58.55
2019-06-26T18:21:16.573Z,58.01
2019-06-26T18:23:48.404Z,58.01
2019-06-26T18:26:20.034Z,57.77
2019-06-26T18:28:51.482Z,57.77
2019-06-26T18:31:22.736Z,57.69
2019-06-26T18:33:54.139Z,57.69
2019-06-26T18:36:25.550Z,57.71
2019-06-26T18:38:56.839Z,57.49
2019-06-26T18:41:28.174Z,58.38
2019-06-26T18:44:00.130Z,57.63
2019-06-26T18:46:32.179Z,57.63
2019-06-26T18:49:03.748Z,57.91
2019-06-26T18:51:35.344Z,57.98
2019-06-26T18:54:07.575Z,58.12
2019-06-26T18:56:39.095Z,58.32
2019-06-26T18:59:10.656Z,58.33
2019-06-26T19:01:42.162Z,57.96
2019-06-26T19:04:13.444Z,58.84
2019-06-26T19:06:45.473Z,57.96
2019-06-26T19:09:17.329Z,58.10
2019-06-26T19:11:48.633Z,58.49
2019-06-26T19:14:20.659Z,58.49
2019-06-26T19:16:52.203Z,58.61
2019-06-26T19:19:23.517Z,58.90
2019-06-26T19:21:55.182Z,58.92
2019-06-26T19:24:27.150Z,58.92
2019-06-26T19:26:58.762Z,60.65
2019-06-26T19:29:30.177Z,58.49
2019-06-26T19:32:01.562Z,58.60
2019-06-26T19:34:33.089Z,58.60
2019-06-26T19:37:04.861Z,58.24
2019-06-26T19:39:36.195Z,58.36
2019-06-26T19:42:07.879Z,59.12
2019-06-26T19:44:39.897Z,59.36
2019-06-26T19:47:11.316Z,59.36
2019-06-26T19:49:42.735Z,59.15
2019-06-26T19:52:14.321Z,59.23
2019-06-26T19:54:45.886Z,59.23
2019-06-26T19:57:17.806Z,59.09
2019-06-26T19:59:49.369Z,58.88
2019-06-26T20:02:20.871Z,58.88
2019-06-26T20:04:52.375Z,58.70
2019-06-26T20:07:24.178Z,59.37
2019-06-26T20:09:55.831Z,59.43
2019-06-26T20:12:27.143Z,59.43
2019-06-26T20:14:59.839Z,59.50
2019-06-26T20:17:31.212Z,60.07
2019-06-26T20:20:02.822Z,60.10
2019-06-26T20:22:35.757Z,60.49
2019-06-26T20:25:07.618Z,60.05
2019-06-26T20:27:39.154Z,60.28
2019-06-26T20:30:12.099Z,60.28
2019-06-26T20:32:43.679Z,59.91
2019-06-26T20:35:14.954Z,59.92
2019-06-26T20:37:46.422Z,60.40
2019-06-26T20:40:18.049Z,60.65
2019-06-26T20:42:49.811Z,60.49
2019-06-26T20:45:22.094Z,60.76
2019-06-26T20:47:53.310Z,59.91
2019-06-26T20:50:24.721Z,59.23
2019-06-26T20:52:56.075Z,59.29
2019-06-26T20:55:27.418Z,59.12
2019-06-26T20:57:58.843Z,58.88
2019-06-26T21:00:30.525Z,58.50
2019-06-26T21:03:02.180Z,58.86
2019-06-26T21:05:33.931Z,59.65
2019-06-26T21:08:05.332Z,59.37
2019-06-26T21:10:36.725Z,60.17
2019-06-26T21:13:08.024Z,60.21
2019-06-26T21:15:40.008Z,60.57
2019-06-26T21:18:11.514Z,60.65
2019-06-26T21:20:43.248Z,61.04
2019-06-26T21:23:18.675Z,61.62
2019-06-26T21:25:47.748Z,62.93
2019-06-26T21:28:19.178Z,62.93
2019-06-26T21:30:51.879Z,62.08
2019-06-26T21:33:23.339Z,62.08
2019-06-26T21:35:54.802Z,63.40
2019-06-26T21:38:26.471Z,63.40
2019-06-26T21:40:57.863Z,62.62
2019-06-26T21:43:36.499Z,63.17
2019-06-26T21:46:08.272Z,63.77
2019-06-26T21:48:39.805Z,63.87
2019-06-26T21:51:11.259Z,64.08
2019-06-26T21:53:42.494Z,64.13
2019-06-26T21:56:32.100Z,63.55
2019-06-26T21:59:21.845Z,65.87
2019-06-26T22:02:11.617Z,65.89
2019-06-26T22:04:52.240Z,65.89
2019-06-26T22:07:25.530Z,65.42
2019-06-26T22:10:14.969Z,65.42
2019-06-26T22:12:46.950Z,65.90
2019-06-26T22:15:18.725Z,66.72
2019-06-26T22:17:50.799Z,66.92
2019-06-26T22:20:22.231Z,66.71
2019-06-26T22:22:53.714Z,66.83
2019-06-26T22:25:25.237Z,67.01
2019-06-26T22:27:56.834Z,67.11
2019-06-26T22:30:28.482Z,67.65
2019-06-26T22:32:59.878Z,67.39
2019-06-26T22:35:31.368Z,67.59
2019-06-26T22:38:02.753Z,67.16
2019-06-26T22:40:34.428Z,67.35
2019-06-26T22:43:06.143Z,67.29
2019-06-26T22:45:37.562Z,67.70
2019-06-26T22:48:09.342Z,66.98
2019-06-26T22:50:40.636Z,66.42
2019-06-26T22:53:12.364Z,66.17
2019-06-26T22:55:44.169Z,66.11
2019-06-26T22:58:16.101Z,67.40
2019-06-26T23:00:47.933Z,67.40
2019-06-26T23:03:19.506Z,66.50
2019-06-26T23:05:50.934Z,66.14
2019-06-26T23:08:22.418Z,66.14
2019-06-26T23:10:54.156Z,66.45
2019-06-26T23:13:25.938Z,65.86
2019-06-26T23:15:57.662Z,65.86
2019-06-26T23:18:29.369Z,65.38
2019-06-26T23:21:01.751Z,65.25
2019-06-26T23:23:33.385Z,65.22
2019-06-26T23:26:05.183Z,65.33
2019-06-26T23:28:36.783Z,65.33
2019-06-26T23:31:08.616Z,65.17
2019-06-26T23:33:42.957Z,64.81
2019-06-26T23:36:14.676Z,64.93
2019-06-26T23:38:46.137Z,64.93
2019-06-26T23:41:18.173Z,65.20
2019-06-26T23:43:49.849Z,64.56
2019-06-26T23:46:21.604Z,64.56
2019-06-26T23:48:53.208Z,64.55
2019-06-26T23:51:24.750Z,64.55
2019-06-26T23:53:56.302Z,65.09
2019-06-26T23:56:40.044Z,66.27
2019-06-26T23:59:00.559Z,66.27
